sensor_id;sensor_type;location;lat;lon;timestamp;P1;durP1;ratioP1;P2;durP2;ratioP2
10550;SDS011;5324;50.684;3.862;2022-09-01T00:01:13;3.40;;;2.60;;
10550;SDS011;5324;50.684;3.862;2022-09-01T00:03:43;3.35;;;2.65;;
10550;SDS011;5324;50.684;3.862;2022-09-01T00:06:15;3.63;;;2.75;;
10550;SDS011;5324;50.684;3.862;2022-09-01T00:08:46;4.03;;;2.60;;
10550;SDS011;5324;50.684;3.862;2022-09-01T00:11:12;2.40;;;2.20;;
10550;SDS011;5324;50.684;3.862;2022-09-01T00:13:39;4.72;;;2.90;;
10550;SDS011;5324;50.684;3.862;2022-09-01T00:16:05;3.65;;;2.53;;
10550;SDS011;5324;50.684;3.862;2022-09-01T00:18:31;3.00;;;2.40;;
10550;SDS011;5324;50.684;3.862;2022-09-01T00:20:58;2.83;;;2.63;;
10550;SDS011;5324;50.684;3.862;2022-09-01T00:23:25;3.30;;;2.63;;
10550;SDS011;5324;50.684;3.862;2022-09-01T00:25:52;3.17;;;2.70;;
10550;SDS011;5324;50.684;3.862;2022-09-01T00:28:18;5.93;;;2.95;;
10550;SDS011;5324;50.684;3.862;2022-09-01T00:30:44;3.20;;;2.65;;
10550;SDS011;5324;50.684;3.862;2022-09-01T00:33:10;3.97;;;3.08;;
10550;SDS011;5324;50.684;3.862;2022-09-01T00:35:36;3.63;;;2.72;;
10550;SDS011;5324;50.684;3.862;2022-09-01T00:38:02;3.53;;;2.80;;
10550;SDS011;5324;50.684;3.862;2022-09-01T00:40:28;2.47;;;2.22;;
10550;SDS011;5324;50.684;3.862;2022-09-01T00:42:55;4.15;;;2.60;;
10550;SDS011;5324;50.684;3.862;2022-09-01T00:45:21;4.32;;;3.00;;
10550;SDS011;5324;50.684;3.862;2022-09-01T00:47:47;3.47;;;2.92;;
10550;SDS011;5324;50.684;3.862;2022-09-01T00:50:15;4.50;;;3.00;;
10550;SDS011;5324;50.684;3.862;2022-09-01T00:52:47;3.58;;;2.70;;
10550;SDS011;5324;50.684;3.862;2022-09-01T00:55:16;4.50;;;2.70;;
10550;SDS011;5324;50.684;3.862;2022-09-01T00:57:43;4.38;;;2.70;;
10550;SDS011;5324;50.684;3.862;2022-09-01T01:00:12;5.18;;;2.90;;
10550;SDS011;5324;50.684;3.862;2022-09-01T01:02:39;2.90;;;2.60;;
10550;SDS011;5324;50.684;3.862;2022-09-01T01:05:05;3.75;;;2.65;;
10550;SDS011;5324;50.684;3.862;2022-09-01T01:07:32;3.05;;;2.75;;
10550;SDS011;5324;50.684;3.862;2022-09-01T01:10:06;2.65;;;2.30;;
10550;SDS011;5324;50.684;3.862;2022-09-01T01:12:34;3.05;;;2.47;;
10550;SDS011;5324;50.684;3.862;2022-09-01T01:15:02;3.67;;;2.85;;
10550;SDS011;5324;50.684;3.862;2022-09-01T01:17:31;3.70;;;2.38;;
10550;SDS011;5324;50.684;3.862;2022-09-01T01:19:57;2.67;;;2.45;;
10550;SDS011;5324;50.684;3.862;2022-09-01T01:28:10;3.35;;;2.80;;
10550;SDS011;5324;50.684;3.862;2022-09-01T01:30:37;3.75;;;2.88;;
10550;SDS011;5324;50.684;3.862;2022-09-01T01:33:04;5.30;;;2.70;;
10550;SDS011;5324;50.684;3.862;2022-09-01T01:35:31;6.30;;;2.83;;
10550;SDS011;5324;50.684;3.862;2022-09-01T01:37:58;2.60;;;2.40;;
10550;SDS011;5324;50.684;3.862;2022-09-01T01:40:26;3.03;;;2.53;;
10550;SDS011;5324;50.684;3.862;2022-09-01T01:42:53;4.20;;;2.90;;
10550;SDS011;5324;50.684;3.862;2022-09-01T01:45:21;2.95;;;2.20;;
10550;SDS011;5324;50.684;3.862;2022-09-01T01:47:48;3.78;;;2.55;;
10550;SDS011;5324;50.684;3.862;2022-09-01T01:50:20;3.33;;;2.80;;
10550;SDS011;5324;50.684;3.862;2022-09-01T01:52:47;3.88;;;2.83;;
10550;SDS011;5324;50.684;3.862;2022-09-01T01:55:13;4.45;;;2.67;;
10550;SDS011;5324;50.684;3.862;2022-09-01T01:57:44;3.58;;;2.83;;
10550;SDS011;5324;50.684;3.862;2022-09-01T02:00:14;3.00;;;2.60;;
10550;SDS011;5324;50.684;3.862;2022-09-01T02:02:43;4.85;;;3.00;;
10550;SDS011;5324;50.684;3.862;2022-09-01T02:05:13;3.83;;;2.70;;
10550;SDS011;5324;50.684;3.862;2022-09-01T02:07:44;3.38;;;2.20;;
10550;SDS011;5324;50.684;3.862;2022-09-01T02:10:11;2.95;;;2.65;;
10550;SDS011;5324;50.684;3.862;2022-09-01T02:12:37;3.80;;;2.65;;
10550;SDS011;5324;50.684;3.862;2022-09-01T02:15:07;2.78;;;2.45;;
10550;SDS011;5324;50.684;3.862;2022-09-01T02:17:35;4.90;;;2.92;;
10550;SDS011;5324;50.684;3.862;2022-09-01T02:20:03;2.60;;;2.40;;
10550;SDS011;5324;50.684;3.862;2022-09-01T02:22:30;6.00;;;2.97;;
10550;SDS011;5324;50.684;3.862;2022-09-01T02:24:57;3.10;;;2.55;;
10550;SDS011;5324;50.684;3.862;2022-09-01T02:27:25;4.18;;;3.10;;
10550;SDS011;5324;50.684;3.862;2022-09-01T02:29:53;3.25;;;2.60;;
10550;SDS011;5324;50.684;3.862;2022-09-01T02:32:20;3.33;;;2.97;;
10550;SDS011;5324;50.684;3.862;2022-09-01T02:34:49;5.93;;;3.13;;
10550;SDS011;5324;50.684;3.862;2022-09-01T02:37:18;4.03;;;2.72;;
10550;SDS011;5324;50.684;3.862;2022-09-01T02:39:49;4.18;;;2.83;;
10550;SDS011;5324;50.684;3.862;2022-09-01T02:42:15;5.32;;;3.03;;
10550;SDS011;5324;50.684;3.862;2022-09-01T02:44:41;3.65;;;2.83;;
10550;SDS011;5324;50.684;3.862;2022-09-01T02:47:08;4.05;;;3.00;;
10550;SDS011;5324;50.684;3.862;2022-09-01T02:49:34;6.40;;;3.28;;
10550;SDS011;5324;50.684;3.862;2022-09-01T02:52:01;3.08;;;2.50;;
10550;SDS011;5324;50.684;3.862;2022-09-01T02:54:29;5.18;;;3.05;;
10550;SDS011;5324;50.684;3.862;2022-09-01T02:56:55;4.80;;;3.17;;
10550;SDS011;5324;50.684;3.862;2022-09-01T02:59:22;3.95;;;3.35;;
10550;SDS011;5324;50.684;3.862;2022-09-01T03:01:49;4.30;;;2.97;;
10550;SDS011;5324;50.684;3.862;2022-09-01T03:04:16;5.65;;;3.00;;
10550;SDS011;5324;50.684;3.862;2022-09-01T03:06:42;5.82;;;3.28;;
10550;SDS011;5324;50.684;3.862;2022-09-01T03:09:13;5.60;;;3.47;;
10550;SDS011;5324;50.684;3.862;2022-09-01T03:11:40;5.60;;;2.92;;
10550;SDS011;5324;50.684;3.862;2022-09-01T03:14:07;3.80;;;3.28;;
10550;SDS011;5324;50.684;3.862;2022-09-01T03:16:33;4.20;;;3.30;;
10550;SDS011;5324;50.684;3.862;2022-09-01T03:18:59;4.07;;;3.08;;
10550;SDS011;5324;50.684;3.862;2022-09-01T03:21:27;3.47;;;2.90;;
10550;SDS011;5324;50.684;3.862;2022-09-01T03:23:55;5.90;;;3.47;;
10550;SDS011;5324;50.684;3.862;2022-09-01T03:26:22;5.20;;;3.55;;
10550;SDS011;5324;50.684;3.862;2022-09-01T03:28:49;4.88;;;3.25;;
10550;SDS011;5324;50.684;3.862;2022-09-01T03:31:16;4.43;;;2.92;;
10550;SDS011;5324;50.684;3.862;2022-09-01T03:33:43;4.60;;;3.80;;
10550;SDS011;5324;50.684;3.862;2022-09-01T03:36:09;7.30;;;3.15;;
10550;SDS011;5324;50.684;3.862;2022-09-01T03:38:43;3.85;;;3.35;;
10550;SDS011;5324;50.684;3.862;2022-09-01T03:41:12;3.78;;;3.38;;
10550;SDS011;5324;50.684;3.862;2022-09-01T03:43:39;3.58;;;3.05;;
10550;SDS011;5324;50.684;3.862;2022-09-01T03:46:05;4.90;;;3.20;;
10550;SDS011;5324;50.684;3.862;2022-09-01T03:48:34;3.20;;;2.90;;
10550;SDS011;5324;50.684;3.862;2022-09-01T03:51:00;4.13;;;3.25;;
10550;SDS011;5324;50.684;3.862;2022-09-01T03:53:27;5.13;;;3.50;;
10550;SDS011;5324;50.684;3.862;2022-09-01T03:55:54;6.18;;;3.33;;
10550;SDS011;5324;50.684;3.862;2022-09-01T03:58:21;5.93;;;3.47;;
10550;SDS011;5324;50.684;3.862;2022-09-01T04:00:49;7.05;;;3.70;;
10550;SDS011;5324;50.684;3.862;2022-09-01T04:03:19;4.22;;;3.10;;
10550;SDS011;5324;50.684;3.862;2022-09-01T04:05:47;4.70;;;3.65;;
10550;SDS011;5324;50.684;3.862;2022-09-01T04:08:15;4.72;;;3.47;;
10550;SDS011;5324;50.684;3.862;2022-09-01T04:10:42;5.47;;;3.40;;
10550;SDS011;5324;50.684;3.862;2022-09-01T04:13:11;4.10;;;3.17;;
10550;SDS011;5324;50.684;3.862;2022-09-01T04:15:38;5.18;;;3.42;;
10550;SDS011;5324;50.684;3.862;2022-09-01T04:18:04;5.13;;;3.47;;
10550;SDS011;5324;50.684;3.862;2022-09-01T04:20:44;4.97;;;3.42;;
10550;SDS011;5324;50.684;3.862;2022-09-01T04:23:18;7.75;;;3.45;;
10550;SDS011;5324;50.684;3.862;2022-09-01T04:25:55;6.25;;;3.35;;
10550;SDS011;5324;50.684;3.862;2022-09-01T04:28:22;3.67;;;2.92;;
10550;SDS011;5324;50.684;3.862;2022-09-01T04:30:54;6.68;;;3.15;;
10550;SDS011;5324;50.684;3.862;2022-09-01T04:33:21;6.13;;;3.65;;
10550;SDS011;5324;50.684;3.862;2022-09-01T04:35:48;4.63;;;3.33;;
10550;SDS011;5324;50.684;3.862;2022-09-01T04:38:16;4.63;;;3.10;;
10550;SDS011;5324;50.684;3.862;2022-09-01T04:40:42;5.13;;;3.38;;
10550;SDS011;5324;50.684;3.862;2022-09-01T04:43:08;5.63;;;3.88;;
10550;SDS011;5324;50.684;3.862;2022-09-01T04:45:35;4.82;;;3.25;;
10550;SDS011;5324;50.684;3.862;2022-09-01T04:48:02;5.97;;;3.37;;
10550;SDS011;5324;50.684;3.862;2022-09-01T04:50:29;5.35;;;3.30;;
10550;SDS011;5324;50.684;3.862;2022-09-01T04:52:57;3.97;;;3.10;;
10550;SDS011;5324;50.684;3.862;2022-09-01T04:55:29;4.65;;;3.20;;
10550;SDS011;5324;50.684;3.862;2022-09-01T04:57:56;8.38;;;3.30;;
10550;SDS011;5324;50.684;3.862;2022-09-01T05:00:24;3.80;;;2.97;;
10550;SDS011;5324;50.684;3.862;2022-09-01T05:02:51;5.03;;;3.50;;
10550;SDS011;5324;50.684;3.862;2022-09-01T05:05:18;5.80;;;2.90;;
10550;SDS011;5324;50.684;3.862;2022-09-01T05:07:44;6.25;;;3.20;;
10550;SDS011;5324;50.684;3.862;2022-09-01T05:10:11;3.25;;;2.95;;
10550;SDS011;5324;50.684;3.862;2022-09-01T05:12:37;4.97;;;3.30;;
10550;SDS011;5324;50.684;3.862;2022-09-01T05:15:05;6.40;;;3.40;;
10550;SDS011;5324;50.684;3.862;2022-09-01T05:17:33;5.17;;;3.40;;
10550;SDS011;5324;50.684;3.862;2022-09-01T05:20:02;5.63;;;3.27;;
10550;SDS011;5324;50.684;3.862;2022-09-01T05:22:28;4.17;;;3.20;;
10550;SDS011;5324;50.684;3.862;2022-09-01T05:24:57;5.33;;;3.53;;
10550;SDS011;5324;50.684;3.862;2022-09-01T05:27:37;4.23;;;2.90;;
10550;SDS011;5324;50.684;3.862;2022-09-01T05:30:05;4.77;;;3.33;;
10550;SDS011;5324;50.684;3.862;2022-09-01T05:32:33;4.23;;;3.43;;
10550;SDS011;5324;50.684;3.862;2022-09-01T05:35:01;3.93;;;3.03;;
10550;SDS011;5324;50.684;3.862;2022-09-01T05:37:30;5.15;;;3.42;;
10550;SDS011;5324;50.684;3.862;2022-09-01T05:39:56;5.45;;;3.63;;
10550;SDS011;5324;50.684;3.862;2022-09-01T05:42:22;4.10;;;3.22;;
10550;SDS011;5324;50.684;3.862;2022-09-01T05:44:48;4.80;;;3.70;;
10550;SDS011;5324;50.684;3.862;2022-09-01T05:47:14;6.17;;;3.80;;
10550;SDS011;5324;50.684;3.862;2022-09-01T05:49:40;3.70;;;3.07;;
10550;SDS011;5324;50.684;3.862;2022-09-01T05:52:06;4.97;;;3.20;;
10550;SDS011;5324;50.684;3.862;2022-09-01T05:54:33;4.90;;;3.60;;
10550;SDS011;5324;50.684;3.862;2022-09-01T05:56:59;4.37;;;3.40;;
10550;SDS011;5324;50.684;3.862;2022-09-01T05:59:27;5.20;;;3.40;;
10550;SDS011;5324;50.684;3.862;2022-09-01T06:01:55;4.37;;;3.80;;
10550;SDS011;5324;50.684;3.862;2022-09-01T06:04:21;3.83;;;3.20;;
10550;SDS011;5324;50.684;3.862;2022-09-01T06:06:49;4.57;;;3.33;;
10550;SDS011;5324;50.684;3.862;2022-09-01T06:09:17;8.57;;;3.73;;
10550;SDS011;5324;50.684;3.862;2022-09-01T06:11:45;4.97;;;3.80;;
10550;SDS011;5324;50.684;3.862;2022-09-01T06:14:12;4.30;;;3.00;;
10550;SDS011;5324;50.684;3.862;2022-09-01T06:16:39;7.20;;;3.60;;
10550;SDS011;5324;50.684;3.862;2022-09-01T06:19:06;3.77;;;3.07;;
10550;SDS011;5324;50.684;3.862;2022-09-01T06:21:32;8.37;;;3.63;;
10550;SDS011;5324;50.684;3.862;2022-09-01T06:23:58;8.10;;;3.43;;
10550;SDS011;5324;50.684;3.862;2022-09-01T06:26:26;6.40;;;3.80;;
10550;SDS011;5324;50.684;3.862;2022-09-01T06:29:00;6.05;;;3.67;;
10550;SDS011;5324;50.684;3.862;2022-09-01T06:31:30;4.30;;;3.20;;
10550;SDS011;5324;50.684;3.862;2022-09-01T06:33:59;4.27;;;3.40;;
10550;SDS011;5324;50.684;3.862;2022-09-01T06:36:25;8.13;;;3.90;;
10550;SDS011;5324;50.684;3.862;2022-09-01T06:38:51;5.97;;;3.55;;
10550;SDS011;5324;50.684;3.862;2022-09-01T06:41:19;4.55;;;3.47;;
10550;SDS011;5324;50.684;3.862;2022-09-01T06:43:46;5.88;;;3.58;;
10550;SDS011;5324;50.684;3.862;2022-09-01T06:46:13;6.15;;;3.67;;
10550;SDS011;5324;50.684;3.862;2022-09-01T06:48:39;6.88;;;3.83;;
10550;SDS011;5324;50.684;3.862;2022-09-01T06:51:10;9.50;;;3.97;;
10550;SDS011;5324;50.684;3.862;2022-09-01T06:53:38;5.20;;;3.80;;
10550;SDS011;5324;50.684;3.862;2022-09-01T06:56:04;6.45;;;3.75;;
10550;SDS011;5324;50.684;3.862;2022-09-01T06:58:30;4.47;;;3.80;;
10550;SDS011;5324;50.684;3.862;2022-09-01T07:00:56;4.95;;;3.70;;
10550;SDS011;5324;50.684;3.862;2022-09-01T07:03:22;4.00;;;3.63;;
10550;SDS011;5324;50.684;3.862;2022-09-01T07:05:49;4.97;;;3.42;;
10550;SDS011;5324;50.684;3.862;2022-09-01T07:08:17;6.65;;;3.60;;
10550;SDS011;5324;50.684;3.862;2022-09-01T07:10:46;7.50;;;4.10;;
10550;SDS011;5324;50.684;3.862;2022-09-01T07:13:15;5.38;;;3.55;;
10550;SDS011;5324;50.684;3.862;2022-09-01T07:15:42;4.45;;;3.70;;
10550;SDS011;5324;50.684;3.862;2022-09-01T07:18:09;5.10;;;4.03;;
10550;SDS011;5324;50.684;3.862;2022-09-01T07:20:39;5.80;;;4.38;;
10550;SDS011;5324;50.684;3.862;2022-09-01T07:23:05;4.72;;;3.95;;
10550;SDS011;5324;50.684;3.862;2022-09-01T07:25:32;5.90;;;3.80;;
10550;SDS011;5324;50.684;3.862;2022-09-01T07:27:58;5.07;;;3.85;;
10550;SDS011;5324;50.684;3.862;2022-09-01T07:30:25;4.18;;;3.78;;
10550;SDS011;5324;50.684;3.862;2022-09-01T07:32:51;5.68;;;4.03;;
10550;SDS011;5324;50.684;3.862;2022-09-01T07:35:19;4.78;;;3.90;;
10550;SDS011;5324;50.684;3.862;2022-09-01T07:37:46;6.25;;;4.10;;
10550;SDS011;5324;50.684;3.862;2022-09-01T07:40:13;6.13;;;3.80;;
10550;SDS011;5324;50.684;3.862;2022-09-01T07:42:44;4.55;;;3.88;;
10550;SDS011;5324;50.684;3.862;2022-09-01T07:45:11;5.32;;;3.97;;
10550;SDS011;5324;50.684;3.862;2022-09-01T07:47:38;5.15;;;4.35;;
10550;SDS011;5324;50.684;3.862;2022-09-01T07:50:05;5.63;;;4.10;;
10550;SDS011;5324;50.684;3.862;2022-09-01T07:52:35;4.68;;;4.15;;
10550;SDS011;5324;50.684;3.862;2022-09-01T07:55:15;4.88;;;3.35;;
10550;SDS011;5324;50.684;3.862;2022-09-01T07:57:43;6.40;;;4.28;;
10550;SDS011;5324;50.684;3.862;2022-09-01T08:00:13;5.63;;;4.32;;
10550;SDS011;5324;50.684;3.862;2022-09-01T08:02:43;6.05;;;4.00;;
10550;SDS011;5324;50.684;3.862;2022-09-01T08:05:12;4.20;;;3.25;;
10550;SDS011;5324;50.684;3.862;2022-09-01T08:07:38;5.75;;;4.03;;
10550;SDS011;5324;50.684;3.862;2022-09-01T08:10:05;5.03;;;3.95;;
10550;SDS011;5324;50.684;3.862;2022-09-01T08:12:32;3.83;;;3.42;;
10550;SDS011;5324;50.684;3.862;2022-09-01T08:14:58;5.57;;;4.13;;
10550;SDS011;5324;50.684;3.862;2022-09-01T08:17:25;5.57;;;3.83;;
10550;SDS011;5324;50.684;3.862;2022-09-01T08:19:51;5.43;;;3.70;;
10550;SDS011;5324;50.684;3.862;2022-09-01T08:22:18;3.70;;;3.40;;
10550;SDS011;5324;50.684;3.862;2022-09-01T08:24:49;6.70;;;3.45;;
10550;SDS011;5324;50.684;3.862;2022-09-01T08:27:15;4.88;;;3.10;;
10550;SDS011;5324;50.684;3.862;2022-09-01T08:29:41;3.78;;;3.38;;
10550;SDS011;5324;50.684;3.862;2022-09-01T08:32:07;4.47;;;3.55;;
10550;SDS011;5324;50.684;3.862;2022-09-01T08:34:35;7.60;;;3.42;;
10550;SDS011;5324;50.684;3.862;2022-09-01T08:37:02;3.45;;;3.05;;
10550;SDS011;5324;50.684;3.862;2022-09-01T08:39:28;5.22;;;3.35;;
10550;SDS011;5324;50.684;3.862;2022-09-01T08:47:09;5.13;;;3.53;;
10550;SDS011;5324;50.684;3.862;2022-09-01T08:49:45;4.35;;;3.92;;
10550;SDS011;5324;50.684;3.862;2022-09-01T08:55:02;3.40;;;3.10;;
10550;SDS011;5324;50.684;3.862;2022-09-01T08:57:34;5.93;;;3.55;;
10550;SDS011;5324;50.684;3.862;2022-09-01T09:00:02;6.53;;;3.50;;
10550;SDS011;5324;50.684;3.862;2022-09-01T09:05:03;3.88;;;3.20;;
10550;SDS011;5324;50.684;3.862;2022-09-01T09:10:37;6.60;;;4.13;;
10550;SDS011;5324;50.684;3.862;2022-09-01T09:16:07;5.07;;;3.10;;
10550;SDS011;5324;50.684;3.862;2022-09-01T09:18:52;3.58;;;3.28;;
10550;SDS011;5324;50.684;3.862;2022-09-01T09:23:54;3.17;;;2.97;;
10550;SDS011;5324;50.684;3.862;2022-09-01T09:26:21;4.03;;;3.63;;
10550;SDS011;5324;50.684;3.862;2022-09-01T09:28:47;4.75;;;3.35;;
10550;SDS011;5324;50.684;3.862;2022-09-01T09:31:26;4.03;;;3.35;;
10550;SDS011;5324;50.684;3.862;2022-09-01T09:33:52;6.07;;;3.10;;
10550;SDS011;5324;50.684;3.862;2022-09-01T09:36:20;4.32;;;3.67;;
10550;SDS011;5324;50.684;3.862;2022-09-01T09:38:46;4.38;;;3.08;;
10550;SDS011;5324;50.684;3.862;2022-09-01T09:41:25;4.75;;;3.25;;
10550;SDS011;5324;50.684;3.862;2022-09-01T09:44:15;4.60;;;3.42;;
10550;SDS011;5324;50.684;3.862;2022-09-01T09:46:38;4.78;;;3.53;;
10550;SDS011;5324;50.684;3.862;2022-09-01T09:51:31;4.68;;;3.28;;
10550;SDS011;5324;50.684;3.862;2022-09-01T09:54:14;3.97;;;3.00;;
10550;SDS011;5324;50.684;3.862;2022-09-01T09:56:40;4.07;;;3.03;;
10550;SDS011;5324;50.684;3.862;2022-09-01T09:59:18;3.58;;;3.28;;
10550;SDS011;5324;50.684;3.862;2022-09-01T10:01:45;6.60;;;3.45;;
10550;SDS011;5324;50.684;3.862;2022-09-01T10:04:30;4.75;;;3.20;;
10550;SDS011;5324;50.684;3.862;2022-09-01T10:06:56;3.90;;;3.00;;
10550;SDS011;5324;50.684;3.862;2022-09-01T10:11:50;6.80;;;3.05;;
10550;SDS011;5324;50.684;3.862;2022-09-01T10:14:21;3.10;;;2.72;;
10550;SDS011;5324;50.684;3.862;2022-09-01T10:16:49;2.50;;;2.30;;
10550;SDS011;5324;50.684;3.862;2022-09-01T10:19:17;2.70;;;2.50;;
10550;SDS011;5324;50.684;3.862;2022-09-01T10:21:44;3.38;;;3.08;;
10550;SDS011;5324;50.684;3.862;2022-09-01T10:26:37;2.85;;;2.55;;
10550;SDS011;5324;50.684;3.862;2022-09-01T10:29:07;3.63;;;2.53;;
10550;SDS011;5324;50.684;3.862;2022-09-01T10:31:35;3.25;;;2.90;;
10550;SDS011;5324;50.684;3.862;2022-09-01T10:34:02;3.10;;;2.80;;
10550;SDS011;5324;50.684;3.862;2022-09-01T10:36:29;5.22;;;2.80;;
10550;SDS011;5324;50.684;3.862;2022-09-01T10:38:56;4.20;;;2.65;;
10550;SDS011;5324;50.684;3.862;2022-09-01T10:44:16;2.60;;;2.40;;
10550;SDS011;5324;50.684;3.862;2022-09-01T10:46:43;2.70;;;2.50;;
10550;SDS011;5324;50.684;3.862;2022-09-01T10:49:20;2.80;;;2.60;;
10550;SDS011;5324;50.684;3.862;2022-09-01T10:51:47;2.95;;;2.42;;
10550;SDS011;5324;50.684;3.862;2022-09-01T10:56:58;2.95;;;2.70;;
10550;SDS011;5324;50.684;3.862;2022-09-01T10:59:26;3.72;;;2.03;;
10550;SDS011;5324;50.684;3.862;2022-09-01T11:04:20;3.72;;;2.80;;
10550;SDS011;5324;50.684;3.862;2022-09-01T11:09:19;2.30;;;2.20;;
10550;SDS011;5324;50.684;3.862;2022-09-01T11:11:49;2.83;;;2.50;;
10550;SDS011;5324;50.684;3.862;2022-09-01T11:14:25;2.70;;;2.50;;
10550;SDS011;5324;50.684;3.862;2022-09-01T11:27:05;2.67;;;2.47;;
10550;SDS011;5324;50.684;3.862;2022-09-01T11:32:17;2.75;;;2.25;;
10550;SDS011;5324;50.684;3.862;2022-09-01T11:34:43;3.55;;;2.25;;
10550;SDS011;5324;50.684;3.862;2022-09-01T11:37:14;4.40;;;2.53;;
10550;SDS011;5324;50.684;3.862;2022-09-01T11:39:44;3.80;;;2.08;;
10550;SDS011;5324;50.684;3.862;2022-09-01T11:42:16;2.35;;;2.15;;
10550;SDS011;5324;50.684;3.862;2022-09-01T11:44:58;2.40;;;2.20;;
10550;SDS011;5324;50.684;3.862;2022-09-01T11:49:55;2.40;;;2.30;;
10550;SDS011;5324;50.684;3.862;2022-09-01T11:52:24;1.90;;;1.80;;
10550;SDS011;5324;50.684;3.862;2022-09-01T11:54:50;2.78;;;2.25;;
10550;SDS011;5324;50.684;3.862;2022-09-01T11:59:44;2.50;;;2.30;;
10550;SDS011;5324;50.684;3.862;2022-09-01T12:02:16;2.17;;;2.00;;
10550;SDS011;5324;50.684;3.862;2022-09-01T12:04:42;2.50;;;2.15;;
10550;SDS011;5324;50.684;3.862;2022-09-01T12:07:12;2.53;;;2.05;;
10550;SDS011;5324;50.684;3.862;2022-09-01T12:12:05;2.60;;;2.40;;
10550;SDS011;5324;50.684;3.862;2022-09-01T12:14:34;2.10;;;2.00;;
10550;SDS011;5324;50.684;3.862;2022-09-01T12:17:02;2.92;;;2.72;;
10550;SDS011;5324;50.684;3.862;2022-09-01T12:19:30;2.63;;;2.40;;
10550;SDS011;5324;50.684;3.862;2022-09-01T12:22:02;2.97;;;2.20;;
10550;SDS011;5324;50.684;3.862;2022-09-01T12:24:34;2.92;;;2.22;;
10550;SDS011;5324;50.684;3.862;2022-09-01T12:27:01;2.17;;;1.98;;
10550;SDS011;5324;50.684;3.862;2022-09-01T12:29:28;2.28;;;2.08;;
10550;SDS011;5324;50.684;3.862;2022-09-01T12:31:55;2.83;;;1.92;;
10550;SDS011;5324;50.684;3.862;2022-09-01T12:34:39;2.35;;;2.20;;
10550;SDS011;5324;50.684;3.862;2022-09-01T12:39:44;2.42;;;2.22;;
10550;SDS011;5324;50.684;3.862;2022-09-01T12:44:48;1.92;;;1.83;;
10550;SDS011;5324;50.684;3.862;2022-09-01T12:50:31;2.47;;;2.28;;
10550;SDS011;5324;50.684;3.862;2022-09-01T12:52:54;2.80;;;2.60;;
10550;SDS011;5324;50.684;3.862;2022-09-01T12:55:26;2.20;;;2.00;;
10550;SDS011;5324;50.684;3.862;2022-09-01T12:57:54;3.28;;;2.20;;
10550;SDS011;5324;50.684;3.862;2022-09-01T13:00:22;2.00;;;1.90;;
10550;SDS011;5324;50.684;3.862;2022-09-01T13:02:49;2.42;;;2.20;;
10550;SDS011;5324;50.684;3.862;2022-09-01T13:05:51;2.33;;;2.13;;
10550;SDS011;5324;50.684;3.862;2022-09-01T13:10:47;2.25;;;2.05;;
10550;SDS011;5324;50.684;3.862;2022-09-01T13:13:13;2.85;;;2.20;;
10550;SDS011;5324;50.684;3.862;2022-09-01T13:15:41;2.63;;;1.90;;
10550;SDS011;5324;50.684;3.862;2022-09-01T13:18:09;2.17;;;1.98;;
10550;SDS011;5324;50.684;3.862;2022-09-01T13:20:35;2.10;;;2.00;;
10550;SDS011;5324;50.684;3.862;2022-09-01T13:23:01;2.35;;;2.15;;
10550;SDS011;5324;50.684;3.862;2022-09-01T13:25:27;2.03;;;1.92;;
10550;SDS011;5324;50.684;3.862;2022-09-01T13:27:53;2.17;;;2.08;;
10550;SDS011;5324;50.684;3.862;2022-09-01T13:30:23;2.10;;;2.00;;
10550;SDS011;5324;50.684;3.862;2022-09-01T13:32:54;2.00;;;1.90;;
10550;SDS011;5324;50.684;3.862;2022-09-01T13:35:20;2.15;;;1.98;;
10550;SDS011;5324;50.684;3.862;2022-09-01T13:37:47;2.55;;;2.35;;
10550;SDS011;5324;50.684;3.862;2022-09-01T13:40:13;2.10;;;1.90;;
10550;SDS011;5324;50.684;3.862;2022-09-01T13:42:49;1.98;;;1.88;;
10550;SDS011;5324;50.684;3.862;2022-09-01T13:45:16;2.22;;;2.10;;
10550;SDS011;5324;50.684;3.862;2022-09-01T13:47:44;2.55;;;2.00;;
10550;SDS011;5324;50.684;3.862;2022-09-01T13:50:11;2.05;;;1.95;;
10550;SDS011;5324;50.684;3.862;2022-09-01T13:52:38;4.10;;;2.22;;
10550;SDS011;5324;50.684;3.862;2022-09-01T13:55:06;2.60;;;1.90;;
10550;SDS011;5324;50.684;3.862;2022-09-01T13:57:32;2.08;;;1.98;;
10550;SDS011;5324;50.684;3.862;2022-09-01T13:59:59;1.83;;;1.70;;
10550;SDS011;5324;50.684;3.862;2022-09-01T14:02:26;2.38;;;2.00;;
10550;SDS011;5324;50.684;3.862;2022-09-01T14:04:52;2.13;;;2.03;;
10550;SDS011;5324;50.684;3.862;2022-09-01T14:07:19;6.65;;;1.95;;
10550;SDS011;5324;50.684;3.862;2022-09-01T14:09:45;2.45;;;2.22;;
10550;SDS011;5324;50.684;3.862;2022-09-01T14:12:11;3.80;;;1.92;;
10550;SDS011;5324;50.684;3.862;2022-09-01T14:14:38;2.85;;;2.10;;
10550;SDS011;5324;50.684;3.862;2022-09-01T14:17:04;1.60;;;1.50;;
10550;SDS011;5324;50.684;3.862;2022-09-01T14:19:30;2.17;;;2.00;;
10550;SDS011;5324;50.684;3.862;2022-09-01T14:21:56;2.30;;;2.10;;
10550;SDS011;5324;50.684;3.862;2022-09-01T14:24:22;2.55;;;2.00;;
10550;SDS011;5324;50.684;3.862;2022-09-01T14:26:48;2.80;;;1.77;;
10550;SDS011;5324;50.684;3.862;2022-09-01T14:29:15;4.28;;;2.03;;
10550;SDS011;5324;50.684;3.862;2022-09-01T14:31:41;2.03;;;1.92;;
10550;SDS011;5324;50.684;3.862;2022-09-01T14:34:09;1.88;;;1.77;;
10550;SDS011;5324;50.684;3.862;2022-09-01T14:36:36;2.40;;;2.17;;
10550;SDS011;5324;50.684;3.862;2022-09-01T14:39:02;2.25;;;1.95;;
10550;SDS011;5324;50.684;3.862;2022-09-01T14:41:29;1.95;;;1.85;;
10550;SDS011;5324;50.684;3.862;2022-09-01T14:43:56;2.78;;;2.17;;
10550;SDS011;5324;50.684;3.862;2022-09-01T14:46:26;1.63;;;1.52;;
10550;SDS011;5324;50.684;3.862;2022-09-01T14:48:53;2.05;;;1.80;;
10550;SDS011;5324;50.684;3.862;2022-09-01T14:51:23;1.88;;;1.77;;
10550;SDS011;5324;50.684;3.862;2022-09-01T14:53:50;2.30;;;1.60;;
10550;SDS011;5324;50.684;3.862;2022-09-01T14:56:16;2.55;;;2.10;;
10550;SDS011;5324;50.684;3.862;2022-09-01T14:58:43;3.92;;;2.28;;
10550;SDS011;5324;50.684;3.862;2022-09-01T15:01:11;2.03;;;1.83;;
10550;SDS011;5324;50.684;3.862;2022-09-01T15:03:37;2.15;;;1.92;;
10550;SDS011;5324;50.684;3.862;2022-09-01T15:06:03;2.95;;;1.80;;
10550;SDS011;5324;50.684;3.862;2022-09-01T15:08:29;2.00;;;1.90;;
10550;SDS011;5324;50.684;3.862;2022-09-01T15:10:55;2.60;;;1.80;;
10550;SDS011;5324;50.684;3.862;2022-09-01T15:13:21;1.90;;;1.80;;
10550;SDS011;5324;50.684;3.862;2022-09-01T15:15:47;1.90;;;1.80;;
10550;SDS011;5324;50.684;3.862;2022-09-01T15:18:13;2.90;;;2.30;;
10550;SDS011;5324;50.684;3.862;2022-09-01T15:20:43;2.13;;;1.80;;
10550;SDS011;5324;50.684;3.862;2022-09-01T15:23:10;2.63;;;1.98;;
10550;SDS011;5324;50.684;3.862;2022-09-01T15:25:36;2.42;;;1.73;;
10550;SDS011;5324;50.684;3.862;2022-09-01T15:28:03;2.58;;;1.80;;
10550;SDS011;5324;50.684;3.862;2022-09-01T15:30:30;1.90;;;1.80;;
10550;SDS011;5324;50.684;3.862;2022-09-01T15:32:56;2.00;;;1.90;;
10550;SDS011;5324;50.684;3.862;2022-09-01T15:35:23;6.45;;;1.98;;
10550;SDS011;5324;50.684;3.862;2022-09-01T15:37:49;2.63;;;1.67;;
10550;SDS011;5324;50.684;3.862;2022-09-01T15:40:17;2.55;;;2.05;;
10550;SDS011;5324;50.684;3.862;2022-09-01T15:42:43;2.70;;;1.60;;
10550;SDS011;5324;50.684;3.862;2022-09-01T15:45:13;1.95;;;1.50;;
10550;SDS011;5324;50.684;3.862;2022-09-01T15:47:40;1.70;;;1.60;;
10550;SDS011;5324;50.684;3.862;2022-09-01T15:50:07;4.68;;;2.38;;
10550;SDS011;5324;50.684;3.862;2022-09-01T15:52:33;2.45;;;2.00;;
10550;SDS011;5324;50.684;3.862;2022-09-01T15:55:00;3.45;;;1.80;;
10550;SDS011;5324;50.684;3.862;2022-09-01T15:57:26;2.20;;;2.00;;
10550;SDS011;5324;50.684;3.862;2022-09-01T15:59:52;1.80;;;1.70;;
10550;SDS011;5324;50.684;3.862;2022-09-01T16:02:18;2.70;;;1.85;;
10550;SDS011;5324;50.684;3.862;2022-09-01T16:04:50;1.85;;;1.67;;
10550;SDS011;5324;50.684;3.862;2022-09-01T16:07:16;1.90;;;1.80;;
10550;SDS011;5324;50.684;3.862;2022-09-01T16:09:42;2.33;;;1.98;;
10550;SDS011;5324;50.684;3.862;2022-09-01T16:12:08;2.10;;;1.90;;
10550;SDS011;5324;50.684;3.862;2022-09-01T16:14:35;2.35;;;2.15;;
10550;SDS011;5324;50.684;3.862;2022-09-01T16:17:02;2.40;;;2.22;;
10550;SDS011;5324;50.684;3.862;2022-09-01T16:24:48;2.40;;;2.20;;